KBCE/BCE METAR and TAF weather

Enter ICAO airport designator
Station Type Date Time Source
KBCE METAR 2018/01/22 10:53 UTC NOAA

KBCE 221053Z AUTO 32003KT 10SM CLR M19/M21 A3022 RMK AO2 SLP285 T11941211


Station Type Date Time Source
KBCE Decoded METAR 2018/01/22 10:53 UTC NOAA

BRYCE CANYON AIRPORT, UT, United States (KBCE) 37-42N 112-09W 2312M
Jan 22, 2018 - 05:53 AM EST / 2018.01.22 1053 UTC
Wind: from the NW (320 degrees) at 3 MPH (3 KT):0
Visibility: 10 mile(s):0
Sky conditions: clear
Temperature: -2.9 F (-19.4 C)
Dew Point: -6.0 F (-21.1 C)
Relative Humidity: 86%
Pressure (altimeter): 30.22 in. Hg (1023 hPa)
ob: KBCE 221053Z AUTO 32003KT 10SM CLR M19/M21 A3022 RMK AO2 SLP285 T11941211
cycle: 11

Station Type Date Time Source
KBCE TAF 2018/01/22 12:30 UTC NOAA

TAF KBCE 221129Z 2212/2312 29007KT P6SM SCT200


Example: see airport list